Flight Track Log - Related Links

Times and Time Zones

All times are in EDT time to prevent confusion due to time zone crossing. See the AWE131 flight status page for this flight to view local times or setup timezone preferences in your user account.

Time Position Orientation Groundspeed Altitude Reporting Facility
EDT Latitude Longitude Course Direction KTS MPH feet Rate Location/Type
Tue 11:25:27 PM 33.4333 -112.0333 273° West 145 167 2,200  Level Phoenix TRACON
Tue 11:26:06 PM 33.4217 -112.0586 241° Southwest 165 190 3,000 2,079 Climbing Albuquerque Center
Tue 11:27:08 PM 33.3947 -112.1292 245° Southwest 228 262 5,700 3,512 Climbing Albuquerque Center
Tue 11:28:00 PM 33.4369 -112.4706 273° West  Level FlightAware Approximate
Tue 11:28:09 PM 33.3619 -112.2314 249° West 271 312 10,200  Level Albuquerque Center
Tue 11:29:00 PM 33.4417 -112.5881 273° West  Level FlightAware Approximate
Tue 11:29:11 PM 33.3794 -112.3275 282° West 308 354 12,600  Level Albuquerque Center
Tue 11:30:00 PM 33.4464 -112.7057 273° West  Level FlightAware Approximate
Tue 11:30:12 PM 33.4111 -112.4306 290° West 327 376 15,700  Level Albuquerque Center
Tue 11:31:14 PM 33.4414 -112.5383 289° West 339 390 18,200 2,537 Climbing Albuquerque Center
Tue 11:32:15 PM 33.4517 -112.6622 276° West 363 418 20,900 2,244 Climbing Albuquerque Center
Tue 11:33:17 PM 33.4531 -112.7869 271° West 374 430 22,800 1,854 Climbing Albuquerque Center
Tue 11:34:18 PM 33.4719 -112.9153 280° West 393 452 24,700 1,854 Climbing Albuquerque Center
Tue 11:35:20 PM 33.4956 -113.0439 282° West 397 457 26,600 1,707 Climbing Albuquerque Center
Tue 11:36:21 PM 33.5206 -113.1758 283° West 402 463 28,200 1,623 Climbing Albuquerque Center
Tue 11:37:22 PM 33.5508 -113.3364 283° West 407 468 29,900 1,415 Climbing Albuquerque Center
Tue 11:38:24 PM 33.5769 -113.4742 283° West 416 479 31,100 976 Climbing Albuquerque Center
Tue 11:39:25 PM 33.6039 -113.6131 283° West 424 488 31,900 439 Climbing Albuquerque Center
Tue 11:40:27 PM 33.6306 -113.7603 282° West 440 506 32,000 49 Climbing Albuquerque Center
Tue 11:41:28 PM 33.6567 -113.9017 283° West 437 503 32,000  Level Albuquerque Center
Tue 11:42:29 PM 33.6831 -114.0444 283° West 439 505 32,000  Level Albuquerque Center
Tue 11:43:31 PM 33.7089 -114.1861 282° West 437 503 32,000  Level Albuquerque Center
Tue 11:44:32 PM 33.7331 -114.3258 282° West 438 504 32,000  Level Albuquerque Center
Tue 11:45:33 PM 33.7597 -114.4647 283° West 432 497 32,000  Level Albuquerque Center
Tue 11:46:42 PM 33.7806 -114.6525 278° West 436 502 32,000 -46 Level Los Angeles Center
Tue 11:47:44 PM 33.7897 -114.7969 274° West 436 502 31,900 -49 Descending Los Angeles Center
Tue 11:48:45 PM 33.7975 -114.9406 274° West 434 499 31,900 49 Level Los Angeles Center
Tue 11:49:47 PM 33.8047 -115.0833 274° West 430 495 32,000  Climbing Los Angeles Center
Tue 11:50:48 PM 33.8122 -115.2236 274° West 425 489 31,900  Descending Los Angeles Center
Tue 11:51:50 PM 33.8208 -115.3925 274° West 424 488 32,000 -97 Climbing Los Angeles Center
Tue 11:52:52 PM 33.8292 -115.5350 274° West 429 494 31,700 -829 Descending Los Angeles Center
Tue 11:53:53 PM 33.8356 -115.6731 273° West 420 483 30,300 -1,268 Descending Los Angeles Center
Tue 11:54:55 PM 33.8414 -115.8078 273° West 408 470 29,100 -1,073 Descending Los Angeles Center
Tue 11:55:56 PM 33.8483 -115.9400 274° West 400 460 28,100 -2,049 Descending Los Angeles Center
Tue 11:56:58 PM 33.8536 -116.0731 273° West 400 460 24,900 -2,634 Descending Los Angeles Center
Tue 11:57:59 PM 33.8608 -116.2072 274° West 401 461 22,700 -2,016 Descending Los Angeles Center
Tue 11:59:00 PM 33.8661 -116.3356 273° West 389 448 20,800 -2,133 Descending Los Angeles Center
Wed 12:00:14 AM 33.8731 -116.4836 273° West 375 432 17,900 -2,162 Descending Los Angeles Center
Wed 12:01:16 AM 33.8803 -116.6244 274° West 356 410 15,900 -1,707 Descending Los Angeles Center
Wed 12:02:17 AM 33.8842 -116.7333 272° West 333 383 14,400 -934 Descending Los Angeles Center
Wed 12:03:18 AM 33.8894 -116.8317 274° West 303 349 14,000 -585 Descending Los Angeles Center
Wed 12:04:20 AM 33.8797 -116.9217 263° West 277 319 13,200 -878 Descending Los Angeles Center
Wed 12:05:21 AM 33.8653 -117.0128 259° West 276 318 12,200 -978 Descending Los Angeles Center
Wed 12:06:35 AM 33.8494 -117.1292 261° West 276 318 11,000 -978 Descending Los Angeles Center
Wed 12:07:36 AM 33.8353 -117.2192 259° West 273 314 10,000 -976 Descending Los Angeles Center
Wed 12:08:38 AM 33.8231 -117.3067 260° West 268 308 9,000 -927 Descending Los Angeles Center
Wed 12:09:39 AM 33.8097 -117.3903 259° West 256 295 8,100 -492 Descending Los Angeles Center
Wed 12:10:40 AM 33.7981 -117.4689 260° West 242 278 8,000 -49 Descending Los Angeles Center
Wed 12:11:41 AM 33.7850 -117.5633 261° West 240 276 8,000 -216 Level Los Angeles Center
Wed 12:12:31 AM 33.7667 -117.6333 253° West 253 291 7,600 -818 Descending Southern California TRACON
Wed 12:13:31 AM 33.7333 -117.7000 239° Southwest 243 280 6,500 -857 Descending Southern California TRACON
Wed 12:14:37 AM 33.7000 -117.7833 244° Southwest 217 250 5,800 -810 Descending Southern California TRACON
Wed 12:15:37 AM 33.6833 -117.8333 248° West 197 227 4,800 -947 Descending Southern California TRACON
Wed 12:16:31 AM 33.6667 -117.8833 248° West 178 205 4,000 -800 Descending Southern California TRACON
Wed 12:17:37 AM 33.6667 -117.9500 270° West 167 192 3,200 -397 Descending Southern California TRACON
Wed 12:18:32 AM 33.6833 -117.9833 301° West 157 181 3,200 -250 Level Southern California TRACON
Wed 12:19:37 AM 33.7167 -118.0333 309° West 150 173 2,700 -650 Descending Southern California TRACON
Wed 12:20:32 AM 33.7500 -118.0667 320° Northwest 148 170 1,900 -793 Descending Southern California TRACON
Wed 12:21:38 AM 33.7667 -118.1000 301° West 129 148 1,100 -667 Descending Southern California TRACON
Wed 12:22:38 AM 33.8000 -118.1167 337° Northwest 127 146 500 -615 Descending Southern California TRACON
Wed 12:22:56 AM 33.8019 -118.1314 279° West 131 151 300 10,125 Descending Los Angeles Center
Wed 12:23:58 AM 33.8247 -118.1594 314° West 130 150 14,000 13,258 Climbing Los Angeles Center

Login

Don't have an account? Register now (free) for customized features, flight alerts, and more!